Accueil
METAR-TAF:

METAR-TAF

Aéroports :

Aéroport international de Nội Bài

Hanoï, Viêtnam

latitude: 21-01N, longitude: 105-48E, altitude: 6 m

Observation

Le bulletin a été fait il y a 49 minutes, à 07:00 UTC
Vent 4 kt de direction variable
Température 36°C
Humidité 50%
Pression 1004 hPa
Visibilité 10 km ou plus
pas de nuages en-dessous de 1500 mètres et pas de cumulonimbus.

METAR: VVNB 250700Z VRB04KT CAVOK 36/24 Q1004 NOSIG

Heure: 14:49 (07:49 UTC)

Prévision

Le bulletin a été fait il y a 2 heures et 49 minutes, à 05:00 UTC
Prévision valable du 25 à 06 UTC au 26 à 06 UTC
Vent 6 kt de est
Visibilité 10 km ou plus
Nuages épars à une hauteur de 2000 ft
Temporairement
du 25 à 09 UTC au 25 à 14 UTC
Nuages épars à une hauteur de 1500 ft
Quelques nuages à une hauteur de 3000 ft, Cumulonimbus.
orage

TAF: VVNB 250500Z 2506/2606 09006KT 9999 SCT020 TEMPO 2509/2514 TS SCT015 FEW030CB

Observations et prévisions météorologiques de plus de 4000 aéroports (messages METAR et TAF).

Les stations disponibles sont représentées par des disques jaunes et rouges sur la carte.

Passer la souris dessus pour voir le nom de la station.

Cliquer dessus pour voir les observations et prévisions météorologiques.

Pour changer de carte: cliquez sur les boutons verts avec une croix noire pour zoomer, sur le bouton vert avec un tiret pour effectuer un zoom arrière, ou sur les flèches vertes pour les cartes adjacentes.


METAR-TAF: